createdAt,value
2022-09-09T00:02:01.930Z,91.74
2022-09-09T00:04:37.509Z,92.08
2022-09-09T00:07:27.724Z,92.07
2022-09-09T00:10:15.448Z,92.02
2022-09-09T00:12:54.814Z,91.92
2022-09-09T00:15:35.537Z,92.25
2022-09-09T00:18:24.083Z,92.40
2022-09-09T00:21:08.790Z,92.15
2022-09-09T00:23:44.713Z,92.37
2022-09-09T00:26:39.339Z,92.24
2022-09-09T00:29:39.631Z,92.10
2022-09-09T00:32:17.273Z,92.50
2022-09-09T00:34:57.706Z,92.21
2022-09-09T00:37:27.679Z,92.35
2022-09-09T00:39:58.798Z,92.62
2022-09-09T00:42:32.511Z,92.48
2022-09-09T00:45:13.271Z,92.45
2022-09-09T00:47:44.752Z,92.54
2022-09-09T00:50:18.379Z,92.56
2022-09-09T00:53:00.316Z,92.46
2022-09-09T00:55:33.996Z,92.43
2022-09-09T00:58:01.525Z,92.56
2022-09-09T01:00:40.492Z,92.57
2022-09-09T01:03:42.277Z,92.46
2022-09-09T01:06:27.553Z,92.59
2022-09-09T01:09:10.213Z,92.54
2022-09-09T01:11:50.362Z,92.27
2022-09-09T01:14:33.697Z,92.20
2022-09-09T01:17:25.403Z,92.38
2022-09-09T01:20:26.597Z,92.26
2022-09-09T01:23:45.672Z,92.27
2022-09-09T01:26:28.211Z,92.46
2022-09-09T01:28:58.754Z,92.40
2022-09-09T01:31:57.037Z,92.13
2022-09-09T01:34:39.316Z,92.23
2022-09-09T01:37:09.376Z,92.19
2022-09-09T01:39:42.219Z,92.32
2022-09-09T01:42:16.841Z,92.21
2022-09-09T01:44:45.094Z,92.45
2022-09-09T01:47:13.619Z,92.49
2022-09-09T01:50:12.501Z,92.37
2022-09-09T01:52:40.089Z,92.21
2022-09-09T01:55:12.076Z,92.04
2022-09-09T01:58:03.310Z,92.14
2022-09-09T02:00:32.970Z,92.41
2022-09-09T02:03:21.160Z,92.23
2022-09-09T02:06:17.179Z,92.29
2022-09-09T02:08:50.007Z,92.25
2022-09-09T02:11:20.663Z,92.34
2022-09-09T02:14:09.486Z,92.25
2022-09-09T02:16:46.012Z,92.61
2022-09-09T02:19:26.461Z,92.64
2022-09-09T02:22:24.273Z,92.61
2022-09-09T02:24:56.634Z,92.61
2022-09-09T02:27:27.362Z,92.58
2022-09-09T02:29:58.100Z,92.72
2022-09-09T02:32:37.540Z,92.64
2022-09-09T02:35:12.018Z,92.56
2022-09-09T02:37:43.010Z,92.69
2022-09-09T02:40:14.484Z,92.75
2022-09-09T02:42:47.510Z,92.86
2022-09-09T02:45:19.758Z,92.96
2022-09-09T02:48:03.959Z,92.81
2022-09-09T02:50:36.746Z,92.72
2022-09-09T02:53:22.178Z,92.78
2022-09-09T02:56:02.566Z,92.70
2022-09-09T02:58:33.314Z,92.63
2022-09-09T03:01:05.638Z,92.60
2022-09-09T03:03:34.113Z,92.67
2022-09-09T03:06:06.762Z,92.71
2022-09-09T03:08:34.420Z,92.56
2022-09-09T03:11:02.540Z,92.62
2022-09-09T03:13:33.246Z,92.61
2022-09-09T03:16:01.094Z,92.44
2022-09-09T03:18:31.794Z,92.66
2022-09-09T03:21:00.721Z,92.48
2022-09-09T03:23:29.548Z,92.65
2022-09-09T03:25:59.645Z,92.58
2022-09-09T03:28:36.650Z,92.71
2022-09-09T03:31:06.628Z,92.64
2022-09-09T03:33:39.983Z,92.63
2022-09-09T03:36:09.552Z,92.20
2022-09-09T03:38:37.486Z,92.47
2022-09-09T03:41:08.928Z,92.64
2022-09-09T03:43:37.518Z,92.17
2022-09-09T03:46:05.842Z,92.40
2022-09-09T03:48:33.627Z,92.10
2022-09-09T03:51:02.462Z,91.99
2022-09-09T03:53:32.961Z,92.35
2022-09-09T03:56:01.787Z,92.26
2022-09-09T03:58:31.383Z,92.04
2022-09-09T04:01:15.773Z,92.29
2022-09-09T04:03:45.851Z,92.38
2022-09-09T04:06:15.801Z,92.22
2022-09-09T04:08:46.661Z,92.53
2022-09-09T04:11:16.413Z,92.47
2022-09-09T04:13:45.659Z,92.44
2022-09-09T04:16:14.771Z,92.24
2022-09-09T04:18:44.014Z,92.22
2022-09-09T04:21:13.184Z,92.39
2022-09-09T04:23:41.530Z,92.52
2022-09-09T04:26:10.156Z,92.43
2022-09-09T04:28:41.577Z,92.41
2022-09-09T04:31:19.752Z,92.33
2022-09-09T04:33:48.785Z,92.14
2022-09-09T04:36:19.330Z,92.07
2022-09-09T04:38:49.909Z,92.45
2022-09-09T04:41:17.866Z,92.42
2022-09-09T04:43:47.076Z,92.26
2022-09-09T04:46:18.316Z,92.68
2022-09-09T04:48:46.433Z,92.55
2022-09-09T04:51:15.282Z,92.76
2022-09-09T04:53:44.771Z,92.66
2022-09-09T04:56:15.840Z,92.58
2022-09-09T04:58:51.369Z,92.62
2022-09-09T05:01:23.297Z,92.50
2022-09-09T05:03:53.804Z,92.68
2022-09-09T05:06:23.798Z,92.43
2022-09-09T05:08:59.029Z,92.38
2022-09-09T05:11:33.318Z,92.92
2022-09-09T05:14:23.836Z,92.75
2022-09-09T05:16:52.464Z,92.60
2022-09-09T05:19:20.925Z,92.57
2022-09-09T05:21:51.082Z,92.41
2022-09-09T05:24:24.392Z,92.51
2022-09-09T05:26:55.204Z,92.54
2022-09-09T05:29:22.816Z,92.32
2022-09-09T05:31:50.725Z,92.62
2022-09-09T05:34:21.817Z,92.27
2022-09-09T05:36:50.138Z,92.15
2022-09-09T05:39:17.652Z,92.09
2022-09-09T05:41:45.257Z,92.38
2022-09-09T05:44:13.018Z,92.46
2022-09-09T05:46:41.048Z,92.15
2022-09-09T05:49:09.329Z,92.28
2022-09-09T05:51:37.557Z,92.57
2022-09-09T05:54:11.817Z,92.37
2022-09-09T05:56:44.119Z,92.16
2022-09-09T05:59:12.501Z,92.50
2022-09-09T06:01:44.456Z,92.40
2022-09-09T06:04:23.551Z,92.42
2022-09-09T06:06:51.464Z,92.34
2022-09-09T06:09:22.048Z,92.18
2022-09-09T06:11:49.634Z,91.99
2022-09-09T06:14:19.074Z,92.01
2022-09-09T06:16:48.782Z,91.98
2022-09-09T06:19:21.629Z,91.82
2022-09-09T06:21:51.738Z,92.08
2022-09-09T06:24:20.624Z,91.77
2022-09-09T06:26:48.152Z,92.05
2022-09-09T06:29:23.040Z,92.10
2022-09-09T06:31:51.617Z,91.86
2022-09-09T06:34:24.255Z,91.67
2022-09-09T06:36:58.790Z,91.50
2022-09-09T06:39:28.681Z,91.64
2022-09-09T06:41:59.633Z,91.56
2022-09-09T06:44:53.444Z,91.70
2022-09-09T06:47:44.022Z,91.78
2022-09-09T06:50:12.099Z,91.58
2022-09-09T06:52:40.579Z,91.57
2022-09-09T06:55:10.384Z,91.62
2022-09-09T06:57:38.501Z,91.93
2022-09-09T07:00:13.239Z,91.72
2022-09-09T07:02:42.165Z,91.54
2022-09-09T07:05:10.946Z,91.60
2022-09-09T07:07:39.954Z,91.26
2022-09-09T07:10:08.640Z,91.34
2022-09-09T07:12:38.205Z,91.66
2022-09-09T07:15:06.540Z,91.48
2022-09-09T07:17:34.150Z,91.81
2022-09-09T07:20:03.012Z,91.62
2022-09-09T07:22:30.887Z,91.59
2022-09-09T07:24:58.508Z,91.77
2022-09-09T07:27:26.836Z,92.04
2022-09-09T07:29:55.478Z,91.87
2022-09-09T07:32:23.234Z,92.03
2022-09-09T07:34:51.719Z,91.99
2022-09-09T07:37:19.427Z,91.80
2022-09-09T07:39:48.733Z,91.78
2022-09-09T07:42:18.929Z,92.00
2022-09-09T07:44:46.554Z,91.51
2022-09-09T07:47:16.608Z,91.93
2022-09-09T07:49:50.914Z,92.03
2022-09-09T07:52:23.681Z,92.02
2022-09-09T07:54:56.768Z,92.18
2022-09-09T07:57:25.240Z,92.11
2022-09-09T07:59:54.061Z,91.90
2022-09-09T08:02:22.549Z,92.08
2022-09-09T08:04:50.743Z,92.15
2022-09-09T08:07:19.411Z,92.15
2022-09-09T08:09:52.313Z,92.13
2022-09-09T08:12:24.503Z,92.08
2022-09-09T08:14:52.949Z,92.10
2022-09-09T08:17:23.833Z,91.85
2022-09-09T08:19:52.023Z,91.55
2022-09-09T08:22:25.589Z,91.31
2022-09-09T08:24:53.237Z,91.50
2022-09-09T08:27:20.904Z,91.62
2022-09-09T08:29:48.851Z,91.34
2022-09-09T08:32:17.697Z,90.90
2022-09-09T08:34:46.722Z,90.62
2022-09-09T08:37:18.968Z,90.56
2022-09-09T08:39:53.830Z,90.51
2022-09-09T08:42:21.950Z,90.23
2022-09-09T08:45:13.134Z,89.85
2022-09-09T08:47:43.940Z,90.13
2022-09-09T08:50:14.323Z,90.23
2022-09-09T08:53:03.583Z,89.71
2022-09-09T08:55:42.903Z,89.83
2022-09-09T08:58:21.059Z,89.73
2022-09-09T09:01:17.531Z,89.40
2022-09-09T09:04:22.829Z,89.31
2022-09-09T09:06:51.074Z,89.35
2022-09-09T09:09:27.861Z,89.51
2022-09-09T09:12:02.434Z,88.93
2022-09-09T09:14:37.412Z,88.65
2022-09-09T09:17:14.293Z,89.20
2022-09-09T09:19:44.327Z,89.59
2022-09-09T09:22:38.490Z,89.31
2022-09-09T09:25:22.189Z,88.96
2022-09-09T09:27:59.360Z,89.59
2022-09-09T09:30:50.735Z,89.25
2022-09-09T09:33:23.958Z,89.02
2022-09-09T09:35:52.065Z,89.24
2022-09-09T09:41:15.469Z,88.16
2022-09-09T09:43:45.748Z,88.06
2022-09-09T09:46:26.449Z,88.15
2022-09-09T09:49:06.787Z,88.15
2022-09-09T09:51:37.656Z,88.13
2022-09-09T09:54:14.510Z,86.96
2022-09-09T09:56:44.708Z,87.30
2022-09-09T09:59:40.232Z,85.49
2022-09-09T10:02:27.804Z,85.64
2022-09-09T10:05:05.065Z,85.39
2022-09-09T10:07:35.026Z,84.32
2022-09-09T10:10:02.727Z,83.01
2022-09-09T10:12:31.058Z,81.77
2022-09-09T10:15:39.815Z,80.10
2022-09-09T10:18:36.845Z,80.73
2022-09-09T10:21:33.530Z,80.43
2022-09-09T10:24:24.268Z,80.36
2022-09-09T10:27:01.197Z,80.36
2022-09-09T10:29:52.973Z,79.19
2022-09-09T10:32:45.955Z,78.22
2022-09-09T10:35:40.202Z,77.83
2022-09-09T10:38:11.992Z,78.18
2022-09-09T10:40:52.539Z,76.75
2022-09-09T10:43:39.866Z,73.90
2022-09-09T10:46:44.839Z,71.70
2022-09-09T10:49:23.156Z,71.50
2022-09-09T10:51:56.151Z,70.28
2022-09-09T10:54:52.742Z,66.49
2022-09-09T10:57:33.044Z,64.39
2022-09-09T11:00:06.870Z,62.95
2022-09-09T11:02:35.807Z,62.12
2022-09-09T11:05:11.687Z,62.20
2022-09-09T11:07:46.812Z,64.01
2022-09-09T11:10:20.407Z,64.61
2022-09-09T11:12:52.585Z,64.87
2022-09-09T11:15:37.010Z,65.01
2022-09-09T11:18:07.849Z,65.28
2022-09-09T11:20:35.986Z,66.33
2022-09-09T11:23:11.419Z,67.00
2022-09-09T11:25:49.405Z,66.10
2022-09-09T11:29:04.101Z,65.21
2022-09-09T11:31:45.475Z,65.51
2022-09-09T11:37:17.133Z,62.01
2022-09-09T11:40:10.980Z,60.44
2022-09-09T11:42:39.625Z,58.97
2022-09-09T11:45:36.829Z,55.87
2022-09-09T11:48:26.853Z,52.76
2022-09-09T11:51:14.575Z,50.77
2022-09-09T11:53:58.407Z,48.84
2022-09-09T11:56:28.960Z,48.76
2022-09-09T11:59:08.306Z,47.28
2022-09-09T12:01:38.615Z,46.79
2022-09-09T12:04:19.860Z,45.11
2022-09-09T12:07:03.707Z,45.71
2022-09-09T12:09:42.553Z,46.39
2022-09-09T12:12:12.800Z,46.50
2022-09-09T12:14:44.260Z,46.69
2022-09-09T12:17:17.626Z,46.79
2022-09-09T12:19:45.191Z,47.31
2022-09-09T12:22:57.862Z,46.82
2022-09-09T12:26:16.734Z,46.46
2022-09-09T12:29:16.631Z,45.69
2022-09-09T12:32:12.369Z,44.86
2022-09-09T12:34:52.453Z,44.82
2022-09-09T12:37:28.571Z,45.05
2022-09-09T12:40:03.267Z,46.10
2022-09-09T12:42:31.692Z,47.24
2022-09-09T12:45:01.897Z,48.44
2022-09-09T12:47:46.965Z,48.90
2022-09-09T12:50:22.422Z,48.64
2022-09-09T12:52:52.976Z,49.88
2022-09-09T12:55:26.202Z,50.59
2022-09-09T12:57:53.927Z,51.13
2022-09-09T13:00:25.656Z,51.50
2022-09-09T13:02:56.193Z,51.20
2022-09-09T13:05:28.269Z,52.07
2022-09-09T13:08:08.546Z,51.85
2022-09-09T13:10:53.785Z,52.42
2022-09-09T13:13:31.068Z,52.26
2022-09-09T13:16:02.990Z,51.72
2022-09-09T13:18:34.324Z,50.63
2022-09-09T13:21:02.935Z,50.64
2022-09-09T13:23:38.492Z,49.02
2022-09-09T13:26:24.618Z,49.49
2022-09-09T13:28:54.055Z,48.63
2022-09-09T13:31:34.103Z,47.55
2022-09-09T13:34:14.389Z,47.69
2022-09-09T13:36:42.619Z,49.10
2022-09-09T13:39:19.014Z,50.10
2022-09-09T13:41:49.607Z,50.90
2022-09-09T13:44:43.603Z,52.00
2022-09-09T13:47:13.901Z,53.65
2022-09-09T13:49:41.467Z,54.52
2022-09-09T13:52:18.217Z,55.02
2022-09-09T13:54:53.429Z,55.63
2022-09-09T13:57:26.333Z,56.09
2022-09-09T14:00:11.305Z,56.49
2022-09-09T14:02:40.244Z,56.58
2022-09-09T14:05:07.957Z,56.29
2022-09-09T14:07:35.512Z,55.78
2022-09-09T14:10:03.120Z,55.73
2022-09-09T14:12:30.808Z,55.63
2022-09-09T14:14:58.349Z,55.56
2022-09-09T14:17:26.222Z,55.83
2022-09-09T14:19:53.692Z,55.94
2022-09-09T14:22:21.602Z,55.84
2022-09-09T14:24:50.149Z,56.19
2022-09-09T14:27:17.809Z,55.71
2022-09-09T14:29:46.016Z,55.48
2022-09-09T14:32:13.665Z,55.49
2022-09-09T14:34:41.663Z,56.13
2022-09-09T14:37:09.459Z,56.29
2022-09-09T14:39:37.627Z,56.51
2022-09-09T14:42:06.354Z,56.60
2022-09-09T14:44:34.722Z,55.47
2022-09-09T14:47:02.390Z,55.51
2022-09-09T14:49:29.879Z,54.73
2022-09-09T14:51:57.474Z,55.17
2022-09-09T14:54:25.021Z,55.11
2022-09-09T14:56:52.631Z,55.80
2022-09-09T14:59:20.140Z,56.18
2022-09-09T15:01:47.949Z,56.02
2022-09-09T15:04:19.162Z,55.73
2022-09-09T15:06:49.313Z,56.30
2022-09-09T15:09:16.889Z,55.77
2022-09-09T15:11:45.367Z,55.46
2022-09-09T15:14:13.334Z,55.45
2022-09-09T15:16:41.384Z,55.81
2022-09-09T15:19:10.277Z,55.17
2022-09-09T15:21:39.177Z,55.14
2022-09-09T15:24:09.278Z,54.93
2022-09-09T15:26:39.530Z,55.11
2022-09-09T15:29:09.156Z,54.97
2022-09-09T15:31:37.228Z,55.06
2022-09-09T15:34:07.306Z,55.05
2022-09-09T15:36:47.084Z,54.67
2022-09-09T15:39:17.104Z,54.75
2022-09-09T15:41:46.567Z,55.35
2022-09-09T15:44:14.396Z,55.41
2022-09-09T15:46:45.568Z,54.91
2022-09-09T15:49:39.679Z,54.17
2022-09-09T15:52:07.235Z,55.20
2022-09-09T15:54:37.774Z,54.57
2022-09-09T15:57:07.328Z,55.16
2022-09-09T15:59:35.257Z,54.86
2022-09-09T16:02:03.120Z,54.67
2022-09-09T16:04:30.939Z,53.54
2022-09-09T16:07:04.173Z,54.49
2022-09-09T16:09:32.481Z,54.42
2022-09-09T16:12:02.012Z,54.72
2022-09-09T16:14:30.100Z,55.49
2022-09-09T16:17:00.603Z,55.54
2022-09-09T16:19:28.206Z,56.20
2022-09-09T16:21:55.788Z,56.68
2022-09-09T16:24:24.729Z,56.61
2022-09-09T16:26:55.373Z,56.96
2022-09-09T16:29:23.923Z,57.33
2022-09-09T16:31:52.956Z,57.38
2022-09-09T16:34:21.371Z,57.49
2022-09-09T16:36:49.597Z,57.81
2022-09-09T16:39:21.389Z,57.71
2022-09-09T16:41:49.785Z,57.86
2022-09-09T16:44:19.823Z,58.54
2022-09-09T16:46:59.645Z,57.89
2022-09-09T16:49:29.560Z,58.09
2022-09-09T16:51:59.757Z,58.41
2022-09-09T16:54:28.228Z,58.46
2022-09-09T16:56:55.940Z,59.14
2022-09-09T16:59:24.512Z,58.95
2022-09-09T17:01:52.992Z,58.97
2022-09-09T17:04:25.198Z,59.37
2022-09-09T17:06:54.629Z,59.39
2022-09-09T17:09:23.769Z,59.80
2022-09-09T17:11:53.345Z,59.83
2022-09-09T17:14:22.850Z,60.33
2022-09-09T17:16:50.434Z,60.23
2022-09-09T17:19:18.317Z,60.39
2022-09-09T17:22:15.723Z,60.18
2022-09-09T17:24:36.563Z,60.58
2022-09-09T17:27:04.754Z,60.90
2022-09-09T17:29:32.335Z,61.11
2022-09-09T17:31:59.849Z,61.23
2022-09-09T17:34:27.811Z,61.02
2022-09-09T17:36:55.442Z,60.66
2022-09-09T17:39:23.408Z,60.98
2022-09-09T17:41:51.286Z,61.16
2022-09-09T17:44:20.267Z,61.35
2022-09-09T17:46:48.071Z,61.46
2022-09-09T17:49:20.341Z,61.83
2022-09-09T17:51:48.347Z,62.16
2022-09-09T17:54:21.213Z,62.64
2022-09-09T17:56:49.304Z,62.96
2022-09-09T17:59:18.744Z,62.40
2022-09-09T18:01:49.219Z,62.55
2022-09-09T18:04:18.105Z,63.03
2022-09-09T18:06:51.543Z,63.12
2022-09-09T18:09:23.453Z,63.30
2022-09-09T18:11:55.448Z,63.85
2022-09-09T18:14:30.201Z,63.66
2022-09-09T18:17:17.119Z,64.06
2022-09-09T18:19:44.732Z,64.65
2022-09-09T18:22:12.450Z,64.73
2022-09-09T18:24:41.476Z,64.95
2022-09-09T18:27:08.973Z,65.04
2022-09-09T18:29:36.520Z,65.23
2022-09-09T18:32:04.068Z,65.57
2022-09-09T18:34:31.728Z,65.81
2022-09-09T18:36:59.298Z,65.96
2022-09-09T18:39:29.931Z,66.13
2022-09-09T18:42:00.726Z,66.11
2022-09-09T18:44:32.484Z,66.56
2022-09-09T18:47:00.393Z,66.99
2022-09-09T18:49:27.956Z,67.08
2022-09-09T18:51:56.715Z,67.08
2022-09-09T18:54:29.714Z,67.31
2022-09-09T18:56:59.620Z,67.58
2022-09-09T18:59:28.307Z,67.82
2022-09-09T19:01:56.125Z,67.69
2022-09-09T19:04:34.528Z,67.97
2022-09-09T19:07:02.535Z,67.91
2022-09-09T19:09:33.891Z,68.26
2022-09-09T19:12:02.417Z,68.32
2022-09-09T19:14:30.399Z,68.65
2022-09-09T19:16:58.917Z,68.88
2022-09-09T19:19:29.868Z,69.00
2022-09-09T19:21:58.194Z,69.51
2022-09-09T19:24:30.369Z,69.60
2022-09-09T19:27:05.886Z,69.81
2022-09-09T19:29:36.516Z,69.98
2022-09-09T19:34:52.541Z,70.55
2022-09-09T19:37:20.659Z,70.74
2022-09-09T19:39:49.710Z,70.84
2022-09-09T19:42:17.723Z,71.00
2022-09-09T19:44:45.501Z,71.11
2022-09-09T19:47:20.655Z,70.93
2022-09-09T19:49:48.378Z,71.51
2022-09-09T19:52:17.219Z,71.25
2022-09-09T19:54:47.903Z,71.24
2022-09-09T19:57:16.223Z,71.11
2022-09-09T19:59:44.041Z,70.75
2022-09-09T20:02:13.530Z,70.68
2022-09-09T20:04:41.845Z,70.58
2022-09-09T20:07:09.419Z,70.27
2022-09-09T20:09:36.933Z,70.44
2022-09-09T20:12:04.849Z,70.50
2022-09-09T20:14:36.022Z,70.53
2022-09-09T20:17:07.093Z,70.37
2022-09-09T20:19:34.834Z,70.24
2022-09-09T20:22:02.334Z,70.09
2022-09-09T20:24:29.847Z,70.09
2022-09-09T20:26:57.353Z,69.73
2022-09-09T20:29:26.032Z,69.72
2022-09-09T20:31:53.828Z,69.91
2022-09-09T20:34:22.304Z,69.52
2022-09-09T20:36:51.098Z,69.90
2022-09-09T20:39:20.820Z,69.56
2022-09-09T20:41:50.355Z,69.52
2022-09-09T20:44:21.634Z,69.36
2022-09-09T20:46:52.672Z,69.42
2022-09-09T20:49:22.684Z,69.47
2022-09-09T20:51:51.490Z,69.47
2022-09-09T20:54:23.385Z,69.35
2022-09-09T20:56:52.759Z,69.83
2022-09-09T20:59:22.970Z,69.75
2022-09-09T21:01:51.842Z,69.87
2022-09-09T21:04:21.317Z,70.49
2022-09-09T21:06:50.357Z,70.08
2022-09-09T21:09:19.359Z,70.32
2022-09-09T21:11:47.305Z,70.88
2022-09-09T21:14:14.948Z,70.88
2022-09-09T21:16:42.689Z,71.00
2022-09-09T21:19:10.372Z,70.93
2022-09-09T21:21:37.973Z,71.51
2022-09-09T21:24:05.962Z,71.15
2022-09-09T21:26:33.473Z,71.34
2022-09-09T21:29:01.114Z,71.31
2022-09-09T21:31:29.096Z,71.52
2022-09-09T21:33:57.899Z,71.13
2022-09-09T21:36:28.470Z,71.37
2022-09-09T21:38:59.292Z,71.33
2022-09-09T21:41:27.361Z,71.94
2022-09-09T21:43:55.386Z,72.20
2022-09-09T21:46:26.552Z,71.96
2022-09-09T21:48:56.579Z,72.66
2022-09-09T21:51:24.921Z,72.46
2022-09-09T21:53:58.160Z,72.63
2022-09-09T21:56:26.870Z,72.90
2022-09-09T21:58:58.938Z,73.08
2022-09-09T22:01:26.722Z,73.08
2022-09-09T22:03:54.308Z,73.01
2022-09-09T22:06:22.159Z,73.29
2022-09-09T22:08:50.043Z,73.20
2022-09-09T22:11:21.416Z,73.58
2022-09-09T22:13:49.741Z,73.59
2022-09-09T22:16:20.618Z,73.90
2022-09-09T22:18:53.362Z,73.92
2022-09-09T22:21:22.209Z,73.41
2022-09-09T22:24:01.150Z,74.22
2022-09-09T22:26:31.823Z,73.87
2022-09-09T22:28:59.480Z,74.12
2022-09-09T22:31:27.895Z,74.47
2022-09-09T22:33:55.635Z,74.77
2022-09-09T22:36:23.434Z,74.96
2022-09-09T22:38:51.471Z,74.94
2022-09-09T22:41:19.648Z,75.25
2022-09-09T22:43:47.663Z,75.31
2022-09-09T22:46:15.691Z,75.10
2022-09-09T22:48:43.976Z,75.48
2022-09-09T22:51:14.197Z,75.39
2022-09-09T22:53:43.297Z,75.52
2022-09-09T22:56:17.295Z,76.04
2022-09-09T22:58:46.268Z,76.44
2022-09-09T23:01:19.350Z,75.68
2022-09-09T23:03:49.038Z,76.26
2022-09-09T23:06:22.661Z,76.04
2022-09-09T23:08:55.301Z,76.63
2022-09-09T23:11:26.370Z,76.66
2022-09-09T23:13:56.059Z,76.75
2022-09-09T23:16:26.292Z,76.97
2022-09-09T23:18:57.661Z,76.84
2022-09-09T23:21:28.275Z,77.17
2022-09-09T23:23:58.578Z,77.12
2022-09-09T23:26:30.025Z,77.04
2022-09-09T23:28:59.875Z,77.24
2022-09-09T23:31:30.184Z,77.19
2022-09-09T23:33:59.856Z,77.37
2022-09-09T23:36:31.639Z,77.55
2022-09-09T23:39:02.916Z,77.43
2022-09-09T23:41:31.301Z,77.39
2022-09-09T23:43:59.074Z,77.82
2022-09-09T23:46:28.840Z,78.11
2022-09-09T23:48:57.980Z,78.06
2022-09-09T23:51:28.964Z,78.19
2022-09-09T23:53:57.815Z,78.24
2022-09-09T23:56:28.276Z,78.05
2022-09-09T23:58:56.285Z,78.03
